sensor_id;sensor_type;location;lat;lon;timestamp;P1;durP1;ratioP1;P2;durP2;ratioP2
50733;SDS011;36701;51.798;19.474;2022-07-30T00:00:45;1.15;;;1.12;;
50733;SDS011;36701;51.798;19.474;2022-07-30T00:03:11;3.85;;;1.10;;
50733;SDS011;36701;51.798;19.474;2022-07-30T00:05:38;11.23;;;1.30;;
50733;SDS011;36701;51.798;19.474;2022-07-30T00:08:04;1.00;;;1.00;;
50733;SDS011;36701;51.798;19.474;2022-07-30T00:10:31;1.52;;;1.20;;
50733;SDS011;36701;51.798;19.474;2022-07-30T00:12:57;4.12;;;0.82;;
50733;SDS011;36701;51.798;19.474;2022-07-30T00:15:24;3.85;;;1.23;;
50733;SDS011;36701;51.798;19.474;2022-07-30T00:17:50;4.97;;;1.40;;
50733;SDS011;36701;51.798;19.474;2022-07-30T00:20:16;1.27;;;1.20;;
50733;SDS011;36701;51.798;19.474;2022-07-30T00:22:43;1.35;;;1.10;;
50733;SDS011;36701;51.798;19.474;2022-07-30T00:25:09;0.98;;;0.98;;
50733;SDS011;36701;51.798;19.474;2022-07-30T00:27:36;1.62;;;1.05;;
50733;SDS011;36701;51.798;19.474;2022-07-30T00:30:02;2.30;;;1.12;;
50733;SDS011;36701;51.798;19.474;2022-07-30T00:32:29;3.60;;;1.00;;
50733;SDS011;36701;51.798;19.474;2022-07-30T00:34:56;4.65;;;1.17;;
50733;SDS011;36701;51.798;19.474;2022-07-30T00:37:22;2.25;;;1.23;;
50733;SDS011;36701;51.798;19.474;2022-07-30T00:39:49;1.10;;;1.10;;
50733;SDS011;36701;51.798;19.474;2022-07-30T00:42:15;2.25;;;1.05;;
50733;SDS011;36701;51.798;19.474;2022-07-30T00:44:45;6.68;;;1.73;;
50733;SDS011;36701;51.798;19.474;2022-07-30T00:47:12;1.95;;;1.12;;
50733;SDS011;36701;51.798;19.474;2022-07-30T00:49:38;1.75;;;1.10;;
50733;SDS011;36701;51.798;19.474;2022-07-30T00:52:04;0.90;;;0.90;;
50733;SDS011;36701;51.798;19.474;2022-07-30T00:54:37;1.00;;;0.90;;
50733;SDS011;36701;51.798;19.474;2022-07-30T00:57:03;1.37;;;1.23;;
50733;SDS011;36701;51.798;19.474;2022-07-30T00:59:29;1.65;;;1.50;;
50733;SDS011;36701;51.798;19.474;2022-07-30T01:01:57;1.17;;;1.12;;
50733;SDS011;36701;51.798;19.474;2022-07-30T01:04:26;1.62;;;1.37;;
50733;SDS011;36701;51.798;19.474;2022-07-30T01:06:52;1.15;;;1.15;;
50733;SDS011;36701;51.798;19.474;2022-07-30T01:09:19;1.85;;;1.12;;
50733;SDS011;36701;51.798;19.474;2022-07-30T01:11:45;1.08;;;0.98;;
50733;SDS011;36701;51.798;19.474;2022-07-30T01:14:12;1.62;;;1.45;;
50733;SDS011;36701;51.798;19.474;2022-07-30T01:16:39;5.40;;;1.20;;
50733;SDS011;36701;51.798;19.474;2022-07-30T01:19:12;3.22;;;1.15;;
50733;SDS011;36701;51.798;19.474;2022-07-30T01:22:11;6.50;;;1.23;;
50733;SDS011;36701;51.798;19.474;2022-07-30T01:24:46;1.83;;;1.67;;
50733;SDS011;36701;51.798;19.474;2022-07-30T01:27:21;6.35;;;1.20;;
50733;SDS011;36701;51.798;19.474;2022-07-30T01:29:49;2.92;;;0.98;;
50733;SDS011;36701;51.798;19.474;2022-07-30T01:32:19;1.48;;;1.20;;
50733;SDS011;36701;51.798;19.474;2022-07-30T01:34:49;4.57;;;0.97;;
50733;SDS011;36701;51.798;19.474;2022-07-30T01:37:19;2.28;;;0.98;;
50733;SDS011;36701;51.798;19.474;2022-07-30T01:39:46;1.00;;;0.98;;
50733;SDS011;36701;51.798;19.474;2022-07-30T01:42:15;1.48;;;1.35;;
50733;SDS011;36701;51.798;19.474;2022-07-30T01:44:42;1.90;;;0.98;;
50733;SDS011;36701;51.798;19.474;2022-07-30T01:47:13;5.60;;;1.40;;
50733;SDS011;36701;51.798;19.474;2022-07-30T01:49:44;4.47;;;1.17;;
50733;SDS011;36701;51.798;19.474;2022-07-30T01:52:13;2.40;;;1.20;;
50733;SDS011;36701;51.798;19.474;2022-07-30T01:54:42;2.25;;;1.10;;
50733;SDS011;36701;51.798;19.474;2022-07-30T01:57:11;1.48;;;1.37;;
50733;SDS011;36701;51.798;19.474;2022-07-30T01:59:40;1.12;;;0.90;;
50733;SDS011;36701;51.798;19.474;2022-07-30T02:02:11;4.22;;;1.12;;
50733;SDS011;36701;51.798;19.474;2022-07-30T02:04:37;9.63;;;1.10;;
50733;SDS011;36701;51.798;19.474;2022-07-30T02:07:13;2.30;;;0.98;;
50733;SDS011;36701;51.798;19.474;2022-07-30T02:09:42;1.55;;;0.90;;
50733;SDS011;36701;51.798;19.474;2022-07-30T02:12:16;5.50;;;1.20;;
50733;SDS011;36701;51.798;19.474;2022-07-30T02:18:04;1.60;;;1.12;;
50733;SDS011;36701;51.798;19.474;2022-07-30T02:20:37;2.62;;;1.23;;
50733;SDS011;36701;51.798;19.474;2022-07-30T02:23:08;2.40;;;0.90;;
50733;SDS011;36701;51.798;19.474;2022-07-30T02:25:37;1.00;;;1.00;;
50733;SDS011;36701;51.798;19.474;2022-07-30T02:28:11;3.12;;;1.48;;
50733;SDS011;36701;51.798;19.474;2022-07-30T02:30:46;6.43;;;1.05;;
50733;SDS011;36701;51.798;19.474;2022-07-30T02:33:17;1.10;;;1.10;;
50733;SDS011;36701;51.798;19.474;2022-07-30T02:35:50;0.90;;;0.90;;
50733;SDS011;36701;51.798;19.474;2022-07-30T02:38:19;6.12;;;0.98;;
50733;SDS011;36701;51.798;19.474;2022-07-30T02:40:46;2.22;;;1.20;;
50733;SDS011;36701;51.798;19.474;2022-07-30T02:43:14;1.33;;;1.00;;
50733;SDS011;36701;51.798;19.474;2022-07-30T02:45:42;3.85;;;1.10;;
50733;SDS011;36701;51.798;19.474;2022-07-30T02:48:12;0.90;;;0.90;;
50733;SDS011;36701;51.798;19.474;2022-07-30T02:50:40;3.30;;;1.30;;
50733;SDS011;36701;51.798;19.474;2022-07-30T02:53:08;5.57;;;0.98;;
50733;SDS011;36701;51.798;19.474;2022-07-30T02:55:38;4.68;;;1.20;;
50733;SDS011;36701;51.798;19.474;2022-07-30T02:58:07;1.92;;;1.27;;
50733;SDS011;36701;51.798;19.474;2022-07-30T03:00:35;0.95;;;0.85;;
50733;SDS011;36701;51.798;19.474;2022-07-30T03:03:03;2.10;;;1.10;;
50733;SDS011;36701;51.798;19.474;2022-07-30T03:05:36;1.70;;;1.15;;
50733;SDS011;36701;51.798;19.474;2022-07-30T03:08:04;1.12;;;1.08;;
50733;SDS011;36701;51.798;19.474;2022-07-30T03:10:33;1.15;;;1.05;;
50733;SDS011;36701;51.798;19.474;2022-07-30T03:13:03;3.37;;;1.58;;
50733;SDS011;36701;51.798;19.474;2022-07-30T03:15:33;1.10;;;1.10;;
50733;SDS011;36701;51.798;19.474;2022-07-30T03:18:04;1.52;;;1.20;;
50733;SDS011;36701;51.798;19.474;2022-07-30T03:20:31;1.17;;;1.02;;
50733;SDS011;36701;51.798;19.474;2022-07-30T03:23:00;0.95;;;0.95;;
50733;SDS011;36701;51.798;19.474;2022-07-30T03:25:28;1.27;;;1.17;;
50733;SDS011;36701;51.798;19.474;2022-07-30T03:27:58;2.65;;;1.10;;
50733;SDS011;36701;51.798;19.474;2022-07-30T03:30:26;3.83;;;1.73;;
50733;SDS011;36701;51.798;19.474;2022-07-30T03:32:54;2.17;;;1.25;;
50733;SDS011;36701;51.798;19.474;2022-07-30T03:35:21;2.92;;;1.80;;
50733;SDS011;36701;51.798;19.474;2022-07-30T03:37:53;2.67;;;0.98;;
50733;SDS011;36701;51.798;19.474;2022-07-30T03:40:22;1.23;;;0.95;;
50733;SDS011;36701;51.798;19.474;2022-07-30T03:42:49;1.30;;;0.93;;
50733;SDS011;36701;51.798;19.474;2022-07-30T03:45:16;2.45;;;0.77;;
50733;SDS011;36701;51.798;19.474;2022-07-30T03:47:44;0.88;;;0.88;;
50733;SDS011;36701;51.798;19.474;2022-07-30T03:50:12;4.85;;;1.50;;
50733;SDS011;36701;51.798;19.474;2022-07-30T03:52:40;6.28;;;1.05;;
50733;SDS011;36701;51.798;19.474;2022-07-30T03:55:10;6.05;;;1.30;;
50733;SDS011;36701;51.798;19.474;2022-07-30T03:57:53;7.78;;;1.10;;
50733;SDS011;36701;51.798;19.474;2022-07-30T04:00:20;2.85;;;1.58;;
50733;SDS011;36701;51.798;19.474;2022-07-30T04:02:48;1.02;;;1.02;;
50733;SDS011;36701;51.798;19.474;2022-07-30T04:05:16;1.85;;;1.05;;
50733;SDS011;36701;51.798;19.474;2022-07-30T04:07:43;5.87;;;1.23;;
50733;SDS011;36701;51.798;19.474;2022-07-30T04:10:10;7.75;;;1.10;;
50733;SDS011;36701;51.798;19.474;2022-07-30T04:12:37;0.98;;;0.98;;
50733;SDS011;36701;51.798;19.474;2022-07-30T04:15:04;6.65;;;1.20;;
50733;SDS011;36701;51.798;19.474;2022-07-30T04:17:35;2.25;;;1.10;;
50733;SDS011;36701;51.798;19.474;2022-07-30T04:20:09;3.75;;;1.15;;
50733;SDS011;36701;51.798;19.474;2022-07-30T04:25:11;3.65;;;1.83;;
50733;SDS011;36701;51.798;19.474;2022-07-30T04:27:39;1.85;;;1.08;;
50733;SDS011;36701;51.798;19.474;2022-07-30T04:30:06;2.00;;;1.37;;
50733;SDS011;36701;51.798;19.474;2022-07-30T04:32:35;1.92;;;0.93;;
50733;SDS011;36701;51.798;19.474;2022-07-30T04:35:08;1.50;;;1.30;;
50733;SDS011;36701;51.798;19.474;2022-07-30T04:37:36;2.97;;;1.17;;
50733;SDS011;36701;51.798;19.474;2022-07-30T04:40:04;4.20;;;1.40;;
50733;SDS011;36701;51.798;19.474;2022-07-30T04:42:31;1.60;;;1.50;;
50733;SDS011;36701;51.798;19.474;2022-07-30T04:44:58;4.60;;;1.55;;
50733;SDS011;36701;51.798;19.474;2022-07-30T04:47:25;3.60;;;1.27;;
50733;SDS011;36701;51.798;19.474;2022-07-30T04:49:53;1.62;;;1.52;;
50733;SDS011;36701;51.798;19.474;2022-07-30T04:52:21;1.42;;;1.33;;
50733;SDS011;36701;51.798;19.474;2022-07-30T04:54:52;2.12;;;1.33;;
50733;SDS011;36701;51.798;19.474;2022-07-30T04:57:20;2.30;;;1.23;;
50733;SDS011;36701;51.798;19.474;2022-07-30T04:59:50;1.12;;;1.12;;
50733;SDS011;36701;51.798;19.474;2022-07-30T05:02:16;6.55;;;1.37;;
50733;SDS011;36701;51.798;19.474;2022-07-30T05:04:45;1.77;;;1.52;;
50733;SDS011;36701;51.798;19.474;2022-07-30T05:07:19;1.92;;;1.23;;
50733;SDS011;36701;51.798;19.474;2022-07-30T05:09:47;1.40;;;1.30;;
50733;SDS011;36701;51.798;19.474;2022-07-30T05:12:14;1.85;;;1.75;;
50733;SDS011;36701;51.798;19.474;2022-07-30T05:14:41;7.62;;;1.75;;
50733;SDS011;36701;51.798;19.474;2022-07-30T05:17:14;1.30;;;1.30;;
50733;SDS011;36701;51.798;19.474;2022-07-30T05:19:40;5.35;;;1.23;;
50733;SDS011;36701;51.798;19.474;2022-07-30T05:22:07;1.92;;;1.83;;
50733;SDS011;36701;51.798;19.474;2022-07-30T05:24:34;3.37;;;1.40;;
50733;SDS011;36701;51.798;19.474;2022-07-30T05:27:00;1.87;;;1.20;;
50733;SDS011;36701;51.798;19.474;2022-07-30T05:29:27;3.12;;;1.50;;
50733;SDS011;36701;51.798;19.474;2022-07-30T05:31:55;4.45;;;1.77;;
50733;SDS011;36701;51.798;19.474;2022-07-30T05:34:24;1.83;;;1.45;;
50733;SDS011;36701;51.798;19.474;2022-07-30T05:36:51;1.87;;;1.50;;
50733;SDS011;36701;51.798;19.474;2022-07-30T05:39:17;7.00;;;1.40;;
50733;SDS011;36701;51.798;19.474;2022-07-30T05:41:45;1.42;;;1.33;;
50733;SDS011;36701;51.798;19.474;2022-07-30T05:44:12;2.00;;;1.62;;
50733;SDS011;36701;51.798;19.474;2022-07-30T05:46:38;2.95;;;1.77;;
50733;SDS011;36701;51.798;19.474;2022-07-30T05:49:05;6.35;;;1.60;;
50733;SDS011;36701;51.798;19.474;2022-07-30T05:51:32;2.78;;;1.55;;
50733;SDS011;36701;51.798;19.474;2022-07-30T05:53:58;5.07;;;1.70;;
50733;SDS011;36701;51.798;19.474;2022-07-30T05:56:26;9.23;;;2.15;;
50733;SDS011;36701;51.798;19.474;2022-07-30T05:58:53;18.00;;;1.80;;
50733;SDS011;36701;51.798;19.474;2022-07-30T06:01:22;2.10;;;1.80;;
50733;SDS011;36701;51.798;19.474;2022-07-30T06:03:49;11.80;;;2.12;;
50733;SDS011;36701;51.798;19.474;2022-07-30T06:06:18;4.30;;;2.00;;
50733;SDS011;36701;51.798;19.474;2022-07-30T06:08:44;2.55;;;1.50;;
50733;SDS011;36701;51.798;19.474;2022-07-30T06:11:11;3.47;;;1.70;;
50733;SDS011;36701;51.798;19.474;2022-07-30T06:13:38;3.17;;;1.85;;
50733;SDS011;36701;51.798;19.474;2022-07-30T06:16:05;3.20;;;2.15;;
50733;SDS011;36701;51.798;19.474;2022-07-30T06:18:33;1.77;;;1.52;;
50733;SDS011;36701;51.798;19.474;2022-07-30T06:21:01;1.35;;;1.30;;
50733;SDS011;36701;51.798;19.474;2022-07-30T06:23:28;3.22;;;1.83;;
50733;SDS011;36701;51.798;19.474;2022-07-30T06:25:58;7.65;;;1.77;;
50733;SDS011;36701;51.798;19.474;2022-07-30T06:28:24;2.87;;;1.87;;
50733;SDS011;36701;51.798;19.474;2022-07-30T06:30:51;2.03;;;1.73;;
50733;SDS011;36701;51.798;19.474;2022-07-30T06:33:18;1.83;;;1.70;;
50733;SDS011;36701;51.798;19.474;2022-07-30T06:35:44;3.80;;;2.28;;
50733;SDS011;36701;51.798;19.474;2022-07-30T06:38:12;4.03;;;1.80;;
50733;SDS011;36701;51.798;19.474;2022-07-30T06:40:40;3.15;;;1.85;;
50733;SDS011;36701;51.798;19.474;2022-07-30T06:43:11;4.22;;;1.92;;
50733;SDS011;36701;51.798;19.474;2022-07-30T06:45:42;6.85;;;1.70;;
50733;SDS011;36701;51.798;19.474;2022-07-30T06:48:09;7.22;;;2.00;;
50733;SDS011;36701;51.798;19.474;2022-07-30T06:50:36;5.62;;;2.47;;
50733;SDS011;36701;51.798;19.474;2022-07-30T06:53:02;2.78;;;1.90;;
50733;SDS011;36701;51.798;19.474;2022-07-30T06:55:31;5.25;;;2.17;;
50733;SDS011;36701;51.798;19.474;2022-07-30T06:57:59;6.25;;;2.20;;
50733;SDS011;36701;51.798;19.474;2022-07-30T07:00:29;2.30;;;2.08;;
50733;SDS011;36701;51.798;19.474;2022-07-30T07:02:56;4.72;;;1.75;;
50733;SDS011;36701;51.798;19.474;2022-07-30T07:05:23;2.45;;;1.62;;
50733;SDS011;36701;51.798;19.474;2022-07-30T07:07:54;4.60;;;1.90;;
50733;SDS011;36701;51.798;19.474;2022-07-30T07:10:20;2.30;;;2.10;;
50733;SDS011;36701;51.798;19.474;2022-07-30T07:12:47;1.62;;;1.27;;
50733;SDS011;36701;51.798;19.474;2022-07-30T07:15:14;3.83;;;1.62;;
50733;SDS011;36701;51.798;19.474;2022-07-30T07:17:41;2.67;;;1.65;;
50733;SDS011;36701;51.798;19.474;2022-07-30T07:20:20;9.70;;;1.98;;
50733;SDS011;36701;51.798;19.474;2022-07-30T07:22:47;2.00;;;1.60;;
50733;SDS011;36701;51.798;19.474;2022-07-30T07:25:13;9.82;;;1.90;;
50733;SDS011;36701;51.798;19.474;2022-07-30T07:27:40;6.53;;;1.95;;
50733;SDS011;36701;51.798;19.474;2022-07-30T07:30:07;3.83;;;2.20;;
50733;SDS011;36701;51.798;19.474;2022-07-30T07:32:34;3.37;;;1.58;;
50733;SDS011;36701;51.798;19.474;2022-07-30T07:35:01;1.95;;;1.58;;
50733;SDS011;36701;51.798;19.474;2022-07-30T07:37:28;1.42;;;1.42;;
50733;SDS011;36701;51.798;19.474;2022-07-30T07:39:55;6.53;;;1.75;;
50733;SDS011;36701;51.798;19.474;2022-07-30T07:42:22;2.85;;;1.90;;
50733;SDS011;36701;51.798;19.474;2022-07-30T07:44:49;4.22;;;1.65;;
50733;SDS011;36701;51.798;19.474;2022-07-30T07:47:16;11.18;;;2.05;;
50733;SDS011;36701;51.798;19.474;2022-07-30T07:49:44;4.22;;;2.00;;
50733;SDS011;36701;51.798;19.474;2022-07-30T07:52:10;7.28;;;2.20;;
50733;SDS011;36701;51.798;19.474;2022-07-30T07:54:37;1.73;;;1.55;;
50733;SDS011;36701;51.798;19.474;2022-07-30T07:57:04;4.20;;;1.77;;
50733;SDS011;36701;51.798;19.474;2022-07-30T07:59:34;4.93;;;1.60;;
50733;SDS011;36701;51.798;19.474;2022-07-30T08:02:00;4.57;;;1.92;;
50733;SDS011;36701;51.798;19.474;2022-07-30T08:04:28;3.42;;;2.12;;
50733;SDS011;36701;51.798;19.474;2022-07-30T08:07:00;3.17;;;1.90;;
50733;SDS011;36701;51.798;19.474;2022-07-30T08:09:30;5.82;;;2.37;;
50733;SDS011;36701;51.798;19.474;2022-07-30T08:11:57;2.15;;;2.03;;
50733;SDS011;36701;51.798;19.474;2022-07-30T08:14:25;7.12;;;1.80;;
50733;SDS011;36701;51.798;19.474;2022-07-30T08:16:53;3.97;;;1.65;;
50733;SDS011;36701;51.798;19.474;2022-07-30T08:19:20;3.20;;;2.53;;
50733;SDS011;36701;51.798;19.474;2022-07-30T08:21:47;2.83;;;1.85;;
50733;SDS011;36701;51.798;19.474;2022-07-30T08:24:15;2.60;;;2.40;;
50733;SDS011;36701;51.798;19.474;2022-07-30T08:26:42;7.90;;;1.67;;
50733;SDS011;36701;51.798;19.474;2022-07-30T08:29:09;4.53;;;2.33;;
50733;SDS011;36701;51.798;19.474;2022-07-30T08:31:36;4.00;;;2.12;;
50733;SDS011;36701;51.798;19.474;2022-07-30T08:34:02;2.65;;;2.03;;
50733;SDS011;36701;51.798;19.474;2022-07-30T08:36:28;7.78;;;2.03;;
50733;SDS011;36701;51.798;19.474;2022-07-30T08:38:55;3.10;;;2.08;;
50733;SDS011;36701;51.798;19.474;2022-07-30T08:41:22;3.62;;;2.25;;
50733;SDS011;36701;51.798;19.474;2022-07-30T08:43:50;11.73;;;2.35;;
50733;SDS011;36701;51.798;19.474;2022-07-30T08:46:18;5.55;;;2.30;;
50733;SDS011;36701;51.798;19.474;2022-07-30T08:48:50;9.02;;;2.37;;
50733;SDS011;36701;51.798;19.474;2022-07-30T08:51:18;9.32;;;2.85;;
50733;SDS011;36701;51.798;19.474;2022-07-30T08:53:47;6.55;;;2.67;;
50733;SDS011;36701;51.798;19.474;2022-07-30T08:56:14;4.35;;;2.70;;
50733;SDS011;36701;51.798;19.474;2022-07-30T08:58:44;9.30;;;3.28;;
50733;SDS011;36701;51.798;19.474;2022-07-30T09:01:10;3.50;;;2.92;;
50733;SDS011;36701;51.798;19.474;2022-07-30T09:03:37;3.17;;;2.90;;
50733;SDS011;36701;51.798;19.474;2022-07-30T09:06:04;6.50;;;3.00;;
50733;SDS011;36701;51.798;19.474;2022-07-30T09:08:31;5.10;;;3.25;;
50733;SDS011;36701;51.798;19.474;2022-07-30T09:10:57;8.45;;;2.67;;
50733;SDS011;36701;51.798;19.474;2022-07-30T09:13:26;3.55;;;2.87;;
50733;SDS011;36701;51.798;19.474;2022-07-30T09:16:00;7.30;;;4.18;;
50733;SDS011;36701;51.798;19.474;2022-07-30T09:18:33;7.45;;;4.07;;
50733;SDS011;36701;51.798;19.474;2022-07-30T09:21:21;8.63;;;4.15;;
50733;SDS011;36701;51.798;19.474;2022-07-30T09:24:00;7.07;;;4.00;;
50733;SDS011;36701;51.798;19.474;2022-07-30T09:29:28;6.90;;;3.60;;
50733;SDS011;36701;51.798;19.474;2022-07-30T09:32:10;4.80;;;4.07;;
50733;SDS011;36701;51.798;19.474;2022-07-30T09:34:40;5.57;;;3.92;;
50733;SDS011;36701;51.798;19.474;2022-07-30T09:37:21;6.82;;;3.35;;
50733;SDS011;36701;51.798;19.474;2022-07-30T09:39:49;9.63;;;4.53;;
50733;SDS011;36701;51.798;19.474;2022-07-30T09:42:19;6.50;;;4.68;;
50733;SDS011;36701;51.798;19.474;2022-07-30T09:44:50;10.98;;;4.97;;
50733;SDS011;36701;51.798;19.474;2022-07-30T09:47:37;4.72;;;3.87;;
50733;SDS011;36701;51.798;19.474;2022-07-30T09:50:22;5.43;;;3.70;;
50733;SDS011;36701;51.798;19.474;2022-07-30T09:52:49;4.25;;;3.50;;
50733;SDS011;36701;51.798;19.474;2022-07-30T09:55:31;8.35;;;3.55;;
50733;SDS011;36701;51.798;19.474;2022-07-30T09:57:59;4.25;;;3.30;;
50733;SDS011;36701;51.798;19.474;2022-07-30T10:00:28;3.65;;;3.35;;
50733;SDS011;36701;51.798;19.474;2022-07-30T10:02:57;7.03;;;4.80;;
50733;SDS011;36701;51.798;19.474;2022-07-30T10:05:33;6.97;;;3.58;;
50733;SDS011;36701;51.798;19.474;2022-07-30T10:08:00;4.25;;;3.50;;
50733;SDS011;36701;51.798;19.474;2022-07-30T10:10:28;9.13;;;4.57;;
50733;SDS011;36701;51.798;19.474;2022-07-30T10:12:58;6.70;;;3.30;;
50733;SDS011;36701;51.798;19.474;2022-07-30T10:15:30;6.87;;;3.87;;
50733;SDS011;36701;51.798;19.474;2022-07-30T10:17:58;6.30;;;3.85;;
50733;SDS011;36701;51.798;19.474;2022-07-30T10:20:26;4.93;;;3.70;;
50733;SDS011;36701;51.798;19.474;2022-07-30T10:22:55;5.93;;;3.97;;
50733;SDS011;36701;51.798;19.474;2022-07-30T10:25:29;5.62;;;3.95;;
50733;SDS011;36701;51.798;19.474;2022-07-30T10:28:02;6.78;;;3.47;;
50733;SDS011;36701;51.798;19.474;2022-07-30T10:30:29;6.28;;;4.30;;
50733;SDS011;36701;51.798;19.474;2022-07-30T10:32:57;6.07;;;3.35;;
50733;SDS011;36701;51.798;19.474;2022-07-30T10:35:24;5.68;;;4.32;;
50733;SDS011;36701;51.798;19.474;2022-07-30T10:37:51;4.85;;;4.20;;
50733;SDS011;36701;51.798;19.474;2022-07-30T10:43:12;5.20;;;3.70;;
50733;SDS011;36701;51.798;19.474;2022-07-30T10:45:55;3.10;;;2.85;;
50733;SDS011;36701;51.798;19.474;2022-07-30T10:48:31;3.97;;;3.25;;
50733;SDS011;36701;51.798;19.474;2022-07-30T10:50:59;4.43;;;3.80;;
50733;SDS011;36701;51.798;19.474;2022-07-30T10:56:09;7.37;;;3.97;;
50733;SDS011;36701;51.798;19.474;2022-07-30T11:04:21;3.40;;;3.20;;
50733;SDS011;36701;51.798;19.474;2022-07-30T11:06:50;5.87;;;3.10;;
50733;SDS011;36701;51.798;19.474;2022-07-30T11:12:06;5.80;;;3.35;;
50733;SDS011;36701;51.798;19.474;2022-07-30T11:15:16;3.33;;;3.03;;
50733;SDS011;36701;51.798;19.474;2022-07-30T11:17:24;5.32;;;3.28;;
50733;SDS011;36701;51.798;19.474;2022-07-30T11:22:35;4.12;;;2.97;;
50733;SDS011;36701;51.798;19.474;2022-07-30T11:27:52;3.60;;;3.10;;
50733;SDS011;36701;51.798;19.474;2022-07-30T11:32:45;4.80;;;3.47;;
50733;SDS011;36701;51.798;19.474;2022-07-30T11:40:21;4.97;;;2.90;;
50733;SDS011;36701;51.798;19.474;2022-07-30T11:42:50;3.35;;;2.83;;
50733;SDS011;36701;51.798;19.474;2022-07-30T11:47:47;6.93;;;3.58;;
50733;SDS011;36701;51.798;19.474;2022-07-30T11:50:25;4.72;;;3.53;;
50733;SDS011;36701;51.798;19.474;2022-07-30T11:52:58;4.25;;;3.50;;
50733;SDS011;36701;51.798;19.474;2022-07-30T11:55:26;10.70;;;3.10;;
50733;SDS011;36701;51.798;19.474;2022-07-30T11:57:53;6.57;;;3.67;;
50733;SDS011;36701;51.798;19.474;2022-07-30T12:00:21;12.25;;;3.90;;
50733;SDS011;36701;51.798;19.474;2022-07-30T12:02:48;4.28;;;3.87;;
50733;SDS011;36701;51.798;19.474;2022-07-30T12:05:21;6.07;;;3.75;;
50733;SDS011;36701;51.798;19.474;2022-07-30T12:07:50;3.83;;;3.42;;
50733;SDS011;36701;51.798;19.474;2022-07-30T12:10:17;4.85;;;4.00;;
50733;SDS011;36701;51.798;19.474;2022-07-30T12:12:44;11.35;;;4.10;;
50733;SDS011;36701;51.798;19.474;2022-07-30T12:15:31;5.78;;;2.97;;
50733;SDS011;36701;51.798;19.474;2022-07-30T12:17:59;4.07;;;3.30;;
50733;SDS011;36701;51.798;19.474;2022-07-30T12:20:29;4.15;;;3.75;;
50733;SDS011;36701;51.798;19.474;2022-07-30T12:22:56;4.30;;;3.70;;
50733;SDS011;36701;51.798;19.474;2022-07-30T12:25:23;7.03;;;3.92;;
50733;SDS011;36701;51.798;19.474;2022-07-30T12:27:50;5.55;;;3.47;;
50733;SDS011;36701;51.798;19.474;2022-07-30T12:30:18;4.12;;;3.20;;
50733;SDS011;36701;51.798;19.474;2022-07-30T12:32:45;7.70;;;4.03;;
50733;SDS011;36701;51.798;19.474;2022-07-30T12:35:12;3.28;;;3.00;;
50733;SDS011;36701;51.798;19.474;2022-07-30T12:37:39;4.28;;;3.17;;
50733;SDS011;36701;51.798;19.474;2022-07-30T12:40:12;5.15;;;3.50;;
50733;SDS011;36701;51.798;19.474;2022-07-30T12:42:49;4.28;;;3.62;;
50733;SDS011;36701;51.798;19.474;2022-07-30T12:45:29;8.70;;;3.53;;
50733;SDS011;36701;51.798;19.474;2022-07-30T12:47:58;7.22;;;3.08;;
50733;SDS011;36701;51.798;19.474;2022-07-30T12:50:25;4.05;;;3.40;;
50733;SDS011;36701;51.798;19.474;2022-07-30T12:52:53;10.80;;;2.80;;
50733;SDS011;36701;51.798;19.474;2022-07-30T12:55:27;5.05;;;3.55;;
50733;SDS011;36701;51.798;19.474;2022-07-30T12:58:01;4.37;;;3.70;;
50733;SDS011;36701;51.798;19.474;2022-07-30T13:03:21;3.83;;;3.20;;
50733;SDS011;36701;51.798;19.474;2022-07-30T13:05:50;11.38;;;4.50;;
50733;SDS011;36701;51.798;19.474;2022-07-30T13:08:17;4.12;;;3.37;;
50733;SDS011;36701;51.798;19.474;2022-07-30T13:10:56;6.80;;;3.15;;
50733;SDS011;36701;51.798;19.474;2022-07-30T13:13:26;4.68;;;3.35;;
50733;SDS011;36701;51.798;19.474;2022-07-30T13:16:00;7.18;;;3.40;;
50733;SDS011;36701;51.798;19.474;2022-07-30T13:18:28;9.95;;;3.87;;
50733;SDS011;36701;51.798;19.474;2022-07-30T13:20:56;5.32;;;3.45;;
50733;SDS011;36701;51.798;19.474;2022-07-30T13:23:23;4.53;;;3.80;;
50733;SDS011;36701;51.798;19.474;2022-07-30T13:25:52;5.32;;;3.75;;
50733;SDS011;36701;51.798;19.474;2022-07-30T13:28:19;11.73;;;3.17;;
50733;SDS011;36701;51.798;19.474;2022-07-30T13:30:45;6.80;;;3.50;;
50733;SDS011;36701;51.798;19.474;2022-07-30T13:33:12;7.87;;;3.80;;
50733;SDS011;36701;51.798;19.474;2022-07-30T13:35:40;8.45;;;3.58;;
50733;SDS011;36701;51.798;19.474;2022-07-30T13:38:13;3.78;;;3.53;;
50733;SDS011;36701;51.798;19.474;2022-07-30T13:40:40;7.03;;;4.03;;
50733;SDS011;36701;51.798;19.474;2022-07-30T13:43:07;6.90;;;3.22;;
50733;SDS011;36701;51.798;19.474;2022-07-30T13:45:34;3.70;;;3.40;;
50733;SDS011;36701;51.798;19.474;2022-07-30T13:48:02;5.20;;;3.53;;
50733;SDS011;36701;51.798;19.474;2022-07-30T13:50:28;7.97;;;4.40;;
50733;SDS011;36701;51.798;19.474;2022-07-30T13:52:55;4.05;;;3.60;;
50733;SDS011;36701;51.798;19.474;2022-07-30T13:55:22;4.32;;;3.90;;
50733;SDS011;36701;51.798;19.474;2022-07-30T13:57:48;15.57;;;4.80;;
50733;SDS011;36701;51.798;19.474;2022-07-30T14:00:15;16.35;;;4.25;;
50733;SDS011;36701;51.798;19.474;2022-07-30T14:02:43;8.40;;;4.10;;
50733;SDS011;36701;51.798;19.474;2022-07-30T14:05:09;8.55;;;4.40;;
50733;SDS011;36701;51.798;19.474;2022-07-30T14:07:36;8.05;;;4.22;;
50733;SDS011;36701;51.798;19.474;2022-07-30T14:10:04;6.80;;;4.03;;
50733;SDS011;36701;51.798;19.474;2022-07-30T14:12:32;10.27;;;4.82;;
50733;SDS011;36701;51.798;19.474;2022-07-30T14:15:00;10.65;;;4.75;;
50733;SDS011;36701;51.798;19.474;2022-07-30T14:17:27;9.30;;;4.55;;
50733;SDS011;36701;51.798;19.474;2022-07-30T14:19:53;6.05;;;4.40;;
50733;SDS011;36701;51.798;19.474;2022-07-30T14:22:20;8.18;;;4.47;;
50733;SDS011;36701;51.798;19.474;2022-07-30T14:24:47;6.85;;;4.68;;
50733;SDS011;36701;51.798;19.474;2022-07-30T14:27:13;4.87;;;4.37;;
50733;SDS011;36701;51.798;19.474;2022-07-30T14:29:40;8.88;;;4.20;;
50733;SDS011;36701;51.798;19.474;2022-07-30T14:32:07;9.32;;;4.97;;
50733;SDS011;36701;51.798;19.474;2022-07-30T14:34:33;7.72;;;4.72;;
50733;SDS011;36701;51.798;19.474;2022-07-30T14:36:59;8.48;;;5.37;;
50733;SDS011;36701;51.798;19.474;2022-07-30T14:39:26;7.22;;;4.62;;
50733;SDS011;36701;51.798;19.474;2022-07-30T14:41:52;6.95;;;4.75;;
50733;SDS011;36701;51.798;19.474;2022-07-30T14:44:18;6.62;;;4.72;;
50733;SDS011;36701;51.798;19.474;2022-07-30T14:46:45;5.10;;;4.60;;
50733;SDS011;36701;51.798;19.474;2022-07-30T14:49:12;5.95;;;4.97;;
50733;SDS011;36701;51.798;19.474;2022-07-30T14:51:40;6.50;;;4.87;;
50733;SDS011;36701;51.798;19.474;2022-07-30T14:54:07;6.70;;;5.15;;
50733;SDS011;36701;51.798;19.474;2022-07-30T14:56:37;6.57;;;4.57;;
50733;SDS011;36701;51.798;19.474;2022-07-30T14:59:03;5.70;;;4.18;;
50733;SDS011;36701;51.798;19.474;2022-07-30T15:01:30;8.30;;;4.80;;
50733;SDS011;36701;51.798;19.474;2022-07-30T15:03:57;6.65;;;4.97;;
50733;SDS011;36701;51.798;19.474;2022-07-30T15:06:24;6.55;;;4.32;;
50733;SDS011;36701;51.798;19.474;2022-07-30T15:08:51;9.75;;;4.62;;
50733;SDS011;36701;51.798;19.474;2022-07-30T15:11:18;5.50;;;4.75;;
50733;SDS011;36701;51.798;19.474;2022-07-30T15:13:45;6.30;;;4.68;;
50733;SDS011;36701;51.798;19.474;2022-07-30T15:16:11;6.95;;;5.25;;
50733;SDS011;36701;51.798;19.474;2022-07-30T15:18:38;10.40;;;4.82;;
50733;SDS011;36701;51.798;19.474;2022-07-30T15:21:04;9.10;;;4.35;;
50733;SDS011;36701;51.798;19.474;2022-07-30T15:23:31;7.03;;;4.93;;